sensor_id;sensor_type;location;lat;lon;timestamp;temperature;humidity
23731;DHT22;12046;44.702;10.622;2023-07-16T00:01:21;27.70;93.70
23731;DHT22;12046;44.702;10.622;2023-07-16T00:03:47;27.70;93.80
23731;DHT22;12046;44.702;10.622;2023-07-16T00:06:13;27.60;93.70
23731;DHT22;12046;44.702;10.622;2023-07-16T00:08:38;27.50;93.60
23731;DHT22;12046;44.702;10.622;2023-07-16T00:11:04;27.40;93.60
23731;DHT22;12046;44.702;10.622;2023-07-16T00:13:30;27.30;93.60
23731;DHT22;12046;44.702;10.622;2023-07-16T00:15:55;27.20;93.60
23731;DHT22;12046;44.702;10.622;2023-07-16T00:18:21;27.20;93.60
23731;DHT22;12046;44.702;10.622;2023-07-16T00:20:47;27.10;93.60
23731;DHT22;12046;44.702;10.622;2023-07-16T00:23:12;27.10;93.60
23731;DHT22;12046;44.702;10.622;2023-07-16T00:25:38;27.10;93.70
23731;DHT22;12046;44.702;10.622;2023-07-16T00:28:04;27.10;93.70
23731;DHT22;12046;44.702;10.622;2023-07-16T00:30:30;26.90;93.60
23731;DHT22;12046;44.702;10.622;2023-07-16T00:32:55;26.90;93.70
23731;DHT22;12046;44.702;10.622;2023-07-16T00:35:21;26.80;93.70
23731;DHT22;12046;44.702;10.622;2023-07-16T00:37:47;26.70;93.80
23731;DHT22;12046;44.702;10.622;2023-07-16T00:40:13;26.60;93.90
23731;DHT22;12046;44.702;10.622;2023-07-16T00:42:39;26.50;93.90
23731;DHT22;12046;44.702;10.622;2023-07-16T00:45:11;26.50;94.00
23731;DHT22;12046;44.702;10.622;2023-07-16T00:47:38;26.50;94.10
23731;DHT22;12046;44.702;10.622;2023-07-16T00:50:05;26.50;94.10
23731;DHT22;12046;44.702;10.622;2023-07-16T00:52:31;26.50;94.10
23731;DHT22;12046;44.702;10.622;2023-07-16T00:54:58;26.50;94.10
23731;DHT22;12046;44.702;10.622;2023-07-16T00:57:24;26.50;94.10
23731;DHT22;12046;44.702;10.622;2023-07-16T00:59:50;26.50;94.20
23731;DHT22;12046;44.702;10.622;2023-07-16T01:02:16;26.50;94.20
23731;DHT22;12046;44.702;10.622;2023-07-16T01:04:42;26.50;94.20
23731;DHT22;12046;44.702;10.622;2023-07-16T01:07:11;26.50;94.20
23731;DHT22;12046;44.702;10.622;2023-07-16T01:09:42;26.50;94.20
23731;DHT22;12046;44.702;10.622;2023-07-16T01:12:09;26.40;94.20
23731;DHT22;12046;44.702;10.622;2023-07-16T01:14:35;26.40;94.10
23731;DHT22;12046;44.702;10.622;2023-07-16T01:17:05;26.50;94.20
23731;DHT22;12046;44.702;10.622;2023-07-16T01:19:33;26.50;94.20
23731;DHT22;12046;44.702;10.622;2023-07-16T01:25:22;26.60;94.10
23731;DHT22;12046;44.702;10.622;2023-07-16T01:28:05;26.60;93.90
23731;DHT22;12046;44.702;10.622;2023-07-16T01:30:31;26.60;93.70
23731;DHT22;12046;44.702;10.622;2023-07-16T01:32:58;26.60;93.50
23731;DHT22;12046;44.702;10.622;2023-07-16T01:35:25;26.60;93.40
23731;DHT22;12046;44.702;10.622;2023-07-16T01:37:51;26.60;93.40
23731;DHT22;12046;44.702;10.622;2023-07-16T01:40:17;26.50;93.40
23731;DHT22;12046;44.702;10.622;2023-07-16T01:42:43;26.50;93.40
23731;DHT22;12046;44.702;10.622;2023-07-16T01:45:08;26.50;93.40
23731;DHT22;12046;44.702;10.622;2023-07-16T01:48:03;26.40;93.30
23731;DHT22;12046;44.702;10.622;2023-07-16T01:59:07;26.10;93.50
23731;DHT22;12046;44.702;10.622;2023-07-16T02:01:39;26.10;93.50
23731;DHT22;12046;44.702;10.622;2023-07-16T02:04:04;26.10;93.40
23731;DHT22;12046;44.702;10.622;2023-07-16T02:06:37;26.10;93.40
23731;DHT22;12046;44.702;10.622;2023-07-16T02:09:03;26.10;93.30
23731;DHT22;12046;44.702;10.622;2023-07-16T02:11:29;26.00;93.20
23731;DHT22;12046;44.702;10.622;2023-07-16T02:13:55;26.10;93.30
23731;DHT22;12046;44.702;10.622;2023-07-16T02:16:23;26.00;93.30
23731;DHT22;12046;44.702;10.622;2023-07-16T02:19:06;26.10;93.30
23731;DHT22;12046;44.702;10.622;2023-07-16T02:21:32;26.00;93.20
23731;DHT22;12046;44.702;10.622;2023-07-16T02:24:07;26.10;93.30
23731;DHT22;12046;44.702;10.622;2023-07-16T02:26:32;26.20;93.30
23731;DHT22;12046;44.702;10.622;2023-07-16T02:29:04;26.20;93.30
23731;DHT22;12046;44.702;10.622;2023-07-16T02:31:55;26.20;93.20
23731;DHT22;12046;44.702;10.622;2023-07-16T02:34:21;26.10;93.20
23731;DHT22;12046;44.702;10.622;2023-07-16T02:36:46;26.20;93.20
23731;DHT22;12046;44.702;10.622;2023-07-16T02:39:18;26.10;93.20
23731;DHT22;12046;44.702;10.622;2023-07-16T02:41:59;26.20;93.20
23731;DHT22;12046;44.702;10.622;2023-07-16T02:44:31;26.10;93.20
23731;DHT22;12046;44.702;10.622;2023-07-16T02:46:57;26.20;93.20
23731;DHT22;12046;44.702;10.622;2023-07-16T02:49:23;26.20;93.10
23731;DHT22;12046;44.702;10.622;2023-07-16T02:51:51;26.10;93.00
23731;DHT22;12046;44.702;10.622;2023-07-16T02:54:55;26.10;92.90
23731;DHT22;12046;44.702;10.622;2023-07-16T02:57:21;26.10;92.70
23731;DHT22;12046;44.702;10.622;2023-07-16T03:02:59;26.00;92.60
23731;DHT22;12046;44.702;10.622;2023-07-16T03:05:46;26.00;92.60
23731;DHT22;12046;44.702;10.622;2023-07-16T03:11:07;26.00;92.60
23731;DHT22;12046;44.702;10.622;2023-07-16T03:13:55;26.00;92.70
23731;DHT22;12046;44.702;10.622;2023-07-16T03:16:30;26.00;92.70
23731;DHT22;12046;44.702;10.622;2023-07-16T03:19:10;26.10;92.70
23731;DHT22;12046;44.702;10.622;2023-07-16T03:21:58;26.10;92.60
23731;DHT22;12046;44.702;10.622;2023-07-16T03:25:11;26.10;92.60
23731;DHT22;12046;44.702;10.622;2023-07-16T03:27:55;26.10;92.60
23731;DHT22;12046;44.702;10.622;2023-07-16T03:33:01;26.00;92.60
23731;DHT22;12046;44.702;10.622;2023-07-16T03:35:36;26.10;92.60
23731;DHT22;12046;44.702;10.622;2023-07-16T03:38:04;26.00;92.70
23731;DHT22;12046;44.702;10.622;2023-07-16T03:40:56;26.00;92.70
23731;DHT22;12046;44.702;10.622;2023-07-16T03:43:58;26.10;92.80
23731;DHT22;12046;44.702;10.622;2023-07-16T04:00:56;26.10;93.10
23731;DHT22;12046;44.702;10.622;2023-07-16T04:03:22;26.10;93.30
23731;DHT22;12046;44.702;10.622;2023-07-16T04:06:13;26.20;93.30
23731;DHT22;12046;44.702;10.622;2023-07-16T04:09:48;26.20;93.40
23731;DHT22;12046;44.702;10.622;2023-07-16T04:12:38;26.20;93.50
23731;DHT22;12046;44.702;10.622;2023-07-16T04:15:12;26.20;93.60
23731;DHT22;12046;44.702;10.622;2023-07-16T04:17:37;26.20;93.60
23731;DHT22;12046;44.702;10.622;2023-07-16T04:20:12;26.20;93.40
23731;DHT22;12046;44.702;10.622;2023-07-16T04:27:50;26.10;93.30
23731;DHT22;12046;44.702;10.622;2023-07-16T04:30:31;26.00;93.20
23731;DHT22;12046;44.702;10.622;2023-07-16T04:33:29;26.00;93.20
23731;DHT22;12046;44.702;10.622;2023-07-16T04:36:33;26.00;93.10
23731;DHT22;12046;44.702;10.622;2023-07-16T04:39:23;26.00;93.10
23731;DHT22;12046;44.702;10.622;2023-07-16T04:41:48;26.00;93.10
23731;DHT22;12046;44.702;10.622;2023-07-16T04:44:23;26.00;93.20
23731;DHT22;12046;44.702;10.622;2023-07-16T04:46:49;26.00;93.20
23731;DHT22;12046;44.702;10.622;2023-07-16T04:49:18;26.10;93.20
23731;DHT22;12046;44.702;10.622;2023-07-16T04:52:01;26.10;93.20
23731;DHT22;12046;44.702;10.622;2023-07-16T04:54:27;26.20;93.20
23731;DHT22;12046;44.702;10.622;2023-07-16T04:57:02;26.20;93.20
23731;DHT22;12046;44.702;10.622;2023-07-16T04:59:28;26.30;93.20
23731;DHT22;12046;44.702;10.622;2023-07-16T05:02:04;26.40;93.20
23731;DHT22;12046;44.702;10.622;2023-07-16T05:04:43;26.40;93.10
23731;DHT22;12046;44.702;10.622;2023-07-16T05:13:33;26.70;93.10
23731;DHT22;12046;44.702;10.622;2023-07-16T05:17:11;26.80;93.10
23731;DHT22;12046;44.702;10.622;2023-07-16T05:30:00;27.30;93.30
23731;DHT22;12046;44.702;10.622;2023-07-16T05:32:47;27.30;93.30
23731;DHT22;12046;44.702;10.622;2023-07-16T05:38:13;27.50;93.40
23731;DHT22;12046;44.702;10.622;2023-07-16T05:40:39;27.60;93.50
23731;DHT22;12046;44.702;10.622;2023-07-16T05:43:05;27.70;93.50
23731;DHT22;12046;44.702;10.622;2023-07-16T05:45:30;27.70;93.50
23731;DHT22;12046;44.702;10.622;2023-07-16T05:48:05;27.70;93.40
23731;DHT22;12046;44.702;10.622;2023-07-16T05:50:46;27.80;93.40
23731;DHT22;12046;44.702;10.622;2023-07-16T05:53:21;27.90;93.40
23731;DHT22;12046;44.702;10.622;2023-07-16T05:56:08;28.00;93.40
23731;DHT22;12046;44.702;10.622;2023-07-16T05:58:43;28.10;93.40
23731;DHT22;12046;44.702;10.622;2023-07-16T06:01:27;28.10;93.40
23731;DHT22;12046;44.702;10.622;2023-07-16T06:04:13;28.20;93.40
23731;DHT22;12046;44.702;10.622;2023-07-16T06:10:06;28.30;93.30
23731;DHT22;12046;44.702;10.622;2023-07-16T06:12:38;28.40;93.30
23731;DHT22;12046;44.702;10.622;2023-07-16T06:15:11;28.50;93.20
23731;DHT22;12046;44.702;10.622;2023-07-16T06:17:39;28.60;93.20
23731;DHT22;12046;44.702;10.622;2023-07-16T06:23:00;28.80;93.10
23731;DHT22;12046;44.702;10.622;2023-07-16T06:25:26;28.90;93.10
23731;DHT22;12046;44.702;10.622;2023-07-16T06:28:01;29.00;93.00
23731;DHT22;12046;44.702;10.622;2023-07-16T06:30:27;29.10;93.00
23731;DHT22;12046;44.702;10.622;2023-07-16T06:32:53;29.20;92.90
23731;DHT22;12046;44.702;10.622;2023-07-16T06:35:18;29.30;92.90
23731;DHT22;12046;44.702;10.622;2023-07-16T06:37:44;29.40;92.80
23731;DHT22;12046;44.702;10.622;2023-07-16T06:40:19;29.50;92.70
23731;DHT22;12046;44.702;10.622;2023-07-16T06:42:45;29.60;92.70
23731;DHT22;12046;44.702;10.622;2023-07-16T06:45:30;29.60;92.60
23731;DHT22;12046;44.702;10.622;2023-07-16T06:47:56;29.70;92.60
23731;DHT22;12046;44.702;10.622;2023-07-16T06:50:30;29.80;92.50
23731;DHT22;12046;44.702;10.622;2023-07-16T06:53:22;29.90;92.50
23731;DHT22;12046;44.702;10.622;2023-07-16T06:56:06;30.00;92.50
23731;DHT22;12046;44.702;10.622;2023-07-16T06:58:41;30.10;92.30
23731;DHT22;12046;44.702;10.622;2023-07-16T07:06:57;30.30;92.10
23731;DHT22;12046;44.702;10.622;2023-07-16T07:26:49;31.10;91.70
23731;DHT22;12046;44.702;10.622;2023-07-16T07:29:15;31.20;91.70
23731;DHT22;12046;44.702;10.622;2023-07-16T07:31:41;31.30;91.70
23731;DHT22;12046;44.702;10.622;2023-07-16T07:34:29;31.30;91.50
23731;DHT22;12046;44.702;10.622;2023-07-16T07:36:55;31.40;91.40
23731;DHT22;12046;44.702;10.622;2023-07-16T07:39:27;31.50;91.40
23731;DHT22;12046;44.702;10.622;2023-07-16T07:41:53;31.60;91.40
23731;DHT22;12046;44.702;10.622;2023-07-16T07:44:19;31.60;91.30
23731;DHT22;12046;44.702;10.622;2023-07-16T07:46:44;31.80;91.20
23731;DHT22;12046;44.702;10.622;2023-07-16T07:49:19;31.90;90.90
23731;DHT22;12046;44.702;10.622;2023-07-16T07:51:54;32.00;90.40
23731;DHT22;12046;44.702;10.622;2023-07-16T07:54:20;32.10;90.30
23731;DHT22;12046;44.702;10.622;2023-07-16T07:56:49;32.10;90.10
23731;DHT22;12046;44.702;10.622;2023-07-16T07:59:18;32.20;89.40
23731;DHT22;12046;44.702;10.622;2023-07-16T08:01:46;32.30;89.20
23731;DHT22;12046;44.702;10.622;2023-07-16T08:04:18;32.30;89.20
23731;DHT22;12046;44.702;10.622;2023-07-16T08:06:47;32.30;88.90
23731;DHT22;12046;44.702;10.622;2023-07-16T08:09:12;32.50;88.30
23731;DHT22;12046;44.702;10.622;2023-07-16T08:11:39;32.60;87.80
23731;DHT22;12046;44.702;10.622;2023-07-16T08:14:28;32.70;87.20
23731;DHT22;12046;44.702;10.622;2023-07-16T08:16:54;32.80;86.50
23731;DHT22;12046;44.702;10.622;2023-07-16T08:19:23;32.80;85.70
23731;DHT22;12046;44.702;10.622;2023-07-16T08:21:48;33.00;85.60
23731;DHT22;12046;44.702;10.622;2023-07-16T08:24:14;33.00;85.50
23731;DHT22;12046;44.702;10.622;2023-07-16T08:26:46;33.00;85.50
23731;DHT22;12046;44.702;10.622;2023-07-16T08:29:15;33.10;85.50
23731;DHT22;12046;44.702;10.622;2023-07-16T08:31:50;33.20;85.40
23731;DHT22;12046;44.702;10.622;2023-07-16T08:34:22;33.40;85.30
23731;DHT22;12046;44.702;10.622;2023-07-16T08:36:57;33.50;85.20
23731;DHT22;12046;44.702;10.622;2023-07-16T08:39:23;33.60;84.60
23731;DHT22;12046;44.702;10.622;2023-07-16T08:41:55;33.70;84.40
23731;DHT22;12046;44.702;10.622;2023-07-16T08:44:48;33.80;84.20
23731;DHT22;12046;44.702;10.622;2023-07-16T08:47:27;33.90;83.70
23731;DHT22;12046;44.702;10.622;2023-07-16T08:49:56;34.00;83.30
23731;DHT22;12046;44.702;10.622;2023-07-16T08:52:22;34.10;83.00
23731;DHT22;12046;44.702;10.622;2023-07-16T08:54:51;34.20;82.50
23731;DHT22;12046;44.702;10.622;2023-07-16T09:05:04;34.30;81.60
23731;DHT22;12046;44.702;10.622;2023-07-16T09:07:34;34.30;81.80
23731;DHT22;12046;44.702;10.622;2023-07-16T09:10:03;34.40;81.90
23731;DHT22;12046;44.702;10.622;2023-07-16T09:12:29;34.40;81.80
23731;DHT22;12046;44.702;10.622;2023-07-16T09:15:11;34.40;81.90
23731;DHT22;12046;44.702;10.622;2023-07-16T09:17:49;34.50;81.90
23731;DHT22;12046;44.702;10.622;2023-07-16T09:20:18;34.60;81.90
23731;DHT22;12046;44.702;10.622;2023-07-16T09:22:44;34.60;81.40
23731;DHT22;12046;44.702;10.622;2023-07-16T09:25:10;34.70;81.30
23731;DHT22;12046;44.702;10.622;2023-07-16T09:27:37;34.80;81.30
23731;DHT22;12046;44.702;10.622;2023-07-16T09:30:06;34.90;81.10
23731;DHT22;12046;44.702;10.622;2023-07-16T09:32:36;35.00;80.90
23731;DHT22;12046;44.702;10.622;2023-07-16T09:35:13;35.10;80.20
23731;DHT22;12046;44.702;10.622;2023-07-16T09:37:41;35.10;79.90
23731;DHT22;12046;44.702;10.622;2023-07-16T09:40:08;35.10;79.80
23731;DHT22;12046;44.702;10.622;2023-07-16T09:42:39;35.10;79.80
23731;DHT22;12046;44.702;10.622;2023-07-16T09:45:06;35.20;79.80
23731;DHT22;12046;44.702;10.622;2023-07-16T09:47:35;35.30;79.70
23731;DHT22;12046;44.702;10.622;2023-07-16T09:50:04;35.30;79.60
23731;DHT22;12046;44.702;10.622;2023-07-16T09:52:31;35.40;79.20
23731;DHT22;12046;44.702;10.622;2023-07-16T09:55:01;35.50;79.10
23731;DHT22;12046;44.702;10.622;2023-07-16T09:57:30;35.70;79.00
23731;DHT22;12046;44.702;10.622;2023-07-16T10:00:02;35.70;78.60
23731;DHT22;12046;44.702;10.622;2023-07-16T10:02:33;35.90;78.30
23731;DHT22;12046;44.702;10.622;2023-07-16T10:05:00;35.90;77.90
23731;DHT22;12046;44.702;10.622;2023-07-16T10:07:25;36.00;77.50
23731;DHT22;12046;44.702;10.622;2023-07-16T10:09:53;36.00;77.10
23731;DHT22;12046;44.702;10.622;2023-07-16T10:12:22;36.10;77.00
23731;DHT22;12046;44.702;10.622;2023-07-16T10:14:53;36.10;77.00
23731;DHT22;12046;44.702;10.622;2023-07-16T10:17:20;36.10;77.00
23731;DHT22;12046;44.702;10.622;2023-07-16T10:19:55;36.20;76.50
23731;DHT22;12046;44.702;10.622;2023-07-16T10:22:45;36.30;75.90
23731;DHT22;12046;44.702;10.622;2023-07-16T10:27:44;36.30;75.70
23731;DHT22;12046;44.702;10.622;2023-07-16T10:30:11;36.40;75.60
23731;DHT22;12046;44.702;10.622;2023-07-16T10:32:37;36.40;75.70
23731;DHT22;12046;44.702;10.622;2023-07-16T10:35:04;36.40;75.60
23731;DHT22;12046;44.702;10.622;2023-07-16T10:37:31;36.40;75.50
23731;DHT22;12046;44.702;10.622;2023-07-16T10:39:58;36.40;75.50
23731;DHT22;12046;44.702;10.622;2023-07-16T10:42:26;36.50;75.40
23731;DHT22;12046;44.702;10.622;2023-07-16T10:44:55;36.50;75.20
23731;DHT22;12046;44.702;10.622;2023-07-16T10:47:23;36.60;75.00
23731;DHT22;12046;44.702;10.622;2023-07-16T10:49:50;36.60;74.80
23731;DHT22;12046;44.702;10.622;2023-07-16T10:52:18;36.70;74.40
23731;DHT22;12046;44.702;10.622;2023-07-16T10:54:44;36.80;74.10
23731;DHT22;12046;44.702;10.622;2023-07-16T10:57:11;36.80;74.30
23731;DHT22;12046;44.702;10.622;2023-07-16T10:59:42;36.80;74.70
23731;DHT22;12046;44.702;10.622;2023-07-16T11:02:13;36.80;75.00
23731;DHT22;12046;44.702;10.622;2023-07-16T11:04:40;36.90;75.10
23731;DHT22;12046;44.702;10.622;2023-07-16T11:07:10;37.00;74.70
23731;DHT22;12046;44.702;10.622;2023-07-16T11:09:43;37.10;74.30
23731;DHT22;12046;44.702;10.622;2023-07-16T11:12:11;37.20;73.90
23731;DHT22;12046;44.702;10.622;2023-07-16T11:14:37;37.20;73.80
23731;DHT22;12046;44.702;10.622;2023-07-16T11:17:07;37.20;73.40
23731;DHT22;12046;44.702;10.622;2023-07-16T11:19:35;37.40;73.30
23731;DHT22;12046;44.702;10.622;2023-07-16T11:22:02;37.40;72.70
23731;DHT22;12046;44.702;10.622;2023-07-16T11:24:29;37.50;71.60
23731;DHT22;12046;44.702;10.622;2023-07-16T11:27:01;37.50;71.50
23731;DHT22;12046;44.702;10.622;2023-07-16T11:29:34;37.50;71.60
23731;DHT22;12046;44.702;10.622;2023-07-16T11:32:01;37.50;71.50
23731;DHT22;12046;44.702;10.622;2023-07-16T11:34:27;37.50;71.60
23731;DHT22;12046;44.702;10.622;2023-07-16T11:36:53;37.60;71.70
23731;DHT22;12046;44.702;10.622;2023-07-16T11:39:18;37.70;71.90
23731;DHT22;12046;44.702;10.622;2023-07-16T11:41:58;37.80;71.60
23731;DHT22;12046;44.702;10.622;2023-07-16T11:44:24;37.70;71.30
23731;DHT22;12046;44.702;10.622;2023-07-16T11:46:50;37.70;71.00
23731;DHT22;12046;44.702;10.622;2023-07-16T11:49:16;37.70;71.10
23731;DHT22;12046;44.702;10.622;2023-07-16T11:51:42;37.70;71.20
23731;DHT22;12046;44.702;10.622;2023-07-16T11:54:11;37.60;71.30
23731;DHT22;12046;44.702;10.622;2023-07-16T11:56:37;37.70;71.20
23731;DHT22;12046;44.702;10.622;2023-07-16T11:59:03;37.70;71.40
23731;DHT22;12046;44.702;10.622;2023-07-16T12:01:29;37.80;71.50
23731;DHT22;12046;44.702;10.622;2023-07-16T12:03:54;37.80;71.60
23731;DHT22;12046;44.702;10.622;2023-07-16T12:06:20;37.90;71.40
23731;DHT22;12046;44.702;10.622;2023-07-16T12:08:46;37.90;71.10
23731;DHT22;12046;44.702;10.622;2023-07-16T12:11:11;37.90;71.00
23731;DHT22;12046;44.702;10.622;2023-07-16T12:13:37;37.90;71.00
23731;DHT22;12046;44.702;10.622;2023-07-16T12:16:03;37.90;71.00
23731;DHT22;12046;44.702;10.622;2023-07-16T12:18:29;37.90;71.30
23731;DHT22;12046;44.702;10.622;2023-07-16T12:20:56;38.00;71.10
23731;DHT22;12046;44.702;10.622;2023-07-16T12:23:22;38.00;70.30
23731;DHT22;12046;44.702;10.622;2023-07-16T12:25:49;38.00;69.30
23731;DHT22;12046;44.702;10.622;2023-07-16T12:28:15;37.90;69.50
23731;DHT22;12046;44.702;10.622;2023-07-16T12:30:41;37.90;70.20
23731;DHT22;12046;44.702;10.622;2023-07-16T12:33:07;37.80;70.60
23731;DHT22;12046;44.702;10.622;2023-07-16T12:35:32;37.80;70.70
23731;DHT22;12046;44.702;10.622;2023-07-16T12:37:58;37.90;70.80
23731;DHT22;12046;44.702;10.622;2023-07-16T12:40:25;37.90;70.80
23731;DHT22;12046;44.702;10.622;2023-07-16T12:42:51;37.90;70.60
23731;DHT22;12046;44.702;10.622;2023-07-16T12:45:17;38.00;70.60
23731;DHT22;12046;44.702;10.622;2023-07-16T12:47:42;38.00;70.50
23731;DHT22;12046;44.702;10.622;2023-07-16T12:50:08;38.10;70.60
23731;DHT22;12046;44.702;10.622;2023-07-16T12:52:34;38.10;70.40
23731;DHT22;12046;44.702;10.622;2023-07-16T12:55:00;38.20;70.20
23731;DHT22;12046;44.702;10.622;2023-07-16T12:57:32;38.20;70.10
23731;DHT22;12046;44.702;10.622;2023-07-16T12:59:57;38.30;69.90
23731;DHT22;12046;44.702;10.622;2023-07-16T13:02:23;38.30;69.90
23731;DHT22;12046;44.702;10.622;2023-07-16T13:04:49;38.30;70.00
23731;DHT22;12046;44.702;10.622;2023-07-16T13:07:14;38.30;69.80
23731;DHT22;12046;44.702;10.622;2023-07-16T13:09:40;38.30;70.10
23731;DHT22;12046;44.702;10.622;2023-07-16T13:12:06;38.20;70.20
23731;DHT22;12046;44.702;10.622;2023-07-16T13:14:32;38.10;70.70
23731;DHT22;12046;44.702;10.622;2023-07-16T13:16:58;38.10;71.30
23731;DHT22;12046;44.702;10.622;2023-07-16T13:19:23;38.10;71.70
23731;DHT22;12046;44.702;10.622;2023-07-16T13:21:49;38.00;71.60
23731;DHT22;12046;44.702;10.622;2023-07-16T13:24:15;38.00;71.80
23731;DHT22;12046;44.702;10.622;2023-07-16T13:26:41;38.00;72.10
23731;DHT22;12046;44.702;10.622;2023-07-16T13:29:06;38.10;72.20
23731;DHT22;12046;44.702;10.622;2023-07-16T13:31:32;38.10;72.10
23731;DHT22;12046;44.702;10.622;2023-07-16T13:33:58;38.20;71.90
23731;DHT22;12046;44.702;10.622;2023-07-16T13:36:23;38.30;71.50
23731;DHT22;12046;44.702;10.622;2023-07-16T13:38:49;38.30;71.50
23731;DHT22;12046;44.702;10.622;2023-07-16T13:41:15;38.30;71.30
23731;DHT22;12046;44.702;10.622;2023-07-16T13:43:41;38.30;71.20
23731;DHT22;12046;44.702;10.622;2023-07-16T13:46:06;38.40;71.10
23731;DHT22;12046;44.702;10.622;2023-07-16T13:48:32;38.40;71.10
23731;DHT22;12046;44.702;10.622;2023-07-16T13:50:58;38.40;70.90
23731;DHT22;12046;44.702;10.622;2023-07-16T13:53:24;38.40;70.90
23731;DHT22;12046;44.702;10.622;2023-07-16T13:55:49;38.50;70.80
23731;DHT22;12046;44.702;10.622;2023-07-16T13:58:15;38.50;70.70
23731;DHT22;12046;44.702;10.622;2023-07-16T14:00:41;38.50;71.10
23731;DHT22;12046;44.702;10.622;2023-07-16T14:03:07;38.50;72.00
23731;DHT22;12046;44.702;10.622;2023-07-16T14:05:32;38.50;73.20
23731;DHT22;12046;44.702;10.622;2023-07-16T14:08:05;38.60;72.70
23731;DHT22;12046;44.702;10.622;2023-07-16T14:10:31;38.60;72.90
23731;DHT22;12046;44.702;10.622;2023-07-16T14:12:56;38.60;72.80
23731;DHT22;12046;44.702;10.622;2023-07-16T14:15:23;38.70;72.80
23731;DHT22;12046;44.702;10.622;2023-07-16T14:17:49;38.70;72.70
23731;DHT22;12046;44.702;10.622;2023-07-16T14:20:15;38.70;72.80
23731;DHT22;12046;44.702;10.622;2023-07-16T14:22:40;38.70;72.80
23731;DHT22;12046;44.702;10.622;2023-07-16T14:25:06;38.70;72.90
23731;DHT22;12046;44.702;10.622;2023-07-16T14:27:34;38.80;72.70
23731;DHT22;12046;44.702;10.622;2023-07-16T14:30:00;38.80;72.40
23731;DHT22;12046;44.702;10.622;2023-07-16T14:32:27;38.80;72.10
23731;DHT22;12046;44.702;10.622;2023-07-16T14:34:54;38.70;72.10
23731;DHT22;12046;44.702;10.622;2023-07-16T14:37:20;38.80;72.20
23731;DHT22;12046;44.702;10.622;2023-07-16T14:39:45;38.70;72.10
23731;DHT22;12046;44.702;10.622;2023-07-16T14:42:11;38.70;72.00
23731;DHT22;12046;44.702;10.622;2023-07-16T14:44:37;38.80;72.00
23731;DHT22;12046;44.702;10.622;2023-07-16T14:47:03;38.80;71.90
23731;DHT22;12046;44.702;10.622;2023-07-16T14:49:30;38.80;71.90
23731;DHT22;12046;44.702;10.622;2023-07-16T14:51:55;38.90;72.00
23731;DHT22;12046;44.702;10.622;2023-07-16T14:54:21;38.80;71.70
23731;DHT22;12046;44.702;10.622;2023-07-16T14:56:47;38.70;71.30
23731;DHT22;12046;44.702;10.622;2023-07-16T14:59:13;38.60;71.10
23731;DHT22;12046;44.702;10.622;2023-07-16T15:01:39;38.40;70.70
23731;DHT22;12046;44.702;10.622;2023-07-16T15:04:04;38.30;70.60
23731;DHT22;12046;44.702;10.622;2023-07-16T15:06:55;38.20;69.80
23731;DHT22;12046;44.702;10.622;2023-07-16T15:09:22;38.10;69.00
23731;DHT22;12046;44.702;10.622;2023-07-16T15:11:48;37.90;69.10
23731;DHT22;12046;44.702;10.622;2023-07-16T15:14:14;37.80;69.30
23731;DHT22;12046;44.702;10.622;2023-07-16T15:16:40;37.70;69.50
23731;DHT22;12046;44.702;10.622;2023-07-16T15:19:09;37.70;69.70
23731;DHT22;12046;44.702;10.622;2023-07-16T15:21:35;37.70;69.90
23731;DHT22;12046;44.702;10.622;2023-07-16T15:24:07;37.70;70.10
23731;DHT22;12046;44.702;10.622;2023-07-16T15:26:33;37.70;70.10
23731;DHT22;12046;44.702;10.622;2023-07-16T15:28:59;37.60;70.00
23731;DHT22;12046;44.702;10.622;2023-07-16T15:31:24;37.60;69.70
23731;DHT22;12046;44.702;10.622;2023-07-16T15:33:56;37.60;69.70
23731;DHT22;12046;44.702;10.622;2023-07-16T15:36:24;37.60;70.00
23731;DHT22;12046;44.702;10.622;2023-07-16T15:38:50;37.60;70.20
23731;DHT22;12046;44.702;10.622;2023-07-16T15:41:17;37.70;70.30
23731;DHT22;12046;44.702;10.622;2023-07-16T15:43:46;37.70;70.10
23731;DHT22;12046;44.702;10.622;2023-07-16T15:46:18;37.80;69.90
23731;DHT22;12046;44.702;10.622;2023-07-16T15:48:44;37.80;70.00
23731;DHT22;12046;44.702;10.622;2023-07-16T15:51:11;37.80;70.20
23731;DHT22;12046;44.702;10.622;2023-07-16T15:53:38;37.70;69.70
23731;DHT22;12046;44.702;10.622;2023-07-16T15:56:04;37.70;69.70
23731;DHT22;12046;44.702;10.622;2023-07-16T15:58:30;37.60;69.50
23731;DHT22;12046;44.702;10.622;2023-07-16T16:00:56;37.50;69.50
23731;DHT22;12046;44.702;10.622;2023-07-16T16:03:22;37.40;69.40
23731;DHT22;12046;44.702;10.622;2023-07-16T16:05:48;37.30;69.50
23731;DHT22;12046;44.702;10.622;2023-07-16T16:08:18;37.30;69.60
23731;DHT22;12046;44.702;10.622;2023-07-16T16:10:46;37.20;69.70
23731;DHT22;12046;44.702;10.622;2023-07-16T16:13:17;37.20;70.00
23731;DHT22;12046;44.702;10.622;2023-07-16T16:15:44;37.10;70.20
23731;DHT22;12046;44.702;10.622;2023-07-16T16:18:10;37.10;70.50
23731;DHT22;12046;44.702;10.622;2023-07-16T16:20:37;37.10;70.80
23731;DHT22;12046;44.702;10.622;2023-07-16T16:23:03;37.00;70.90
23731;DHT22;12046;44.702;10.622;2023-07-16T16:25:30;37.10;71.00
23731;DHT22;12046;44.702;10.622;2023-07-16T16:27:58;37.10;71.10
23731;DHT22;12046;44.702;10.622;2023-07-16T16:30:24;37.00;71.20
23731;DHT22;12046;44.702;10.622;2023-07-16T16:32:50;37.00;71.50
23731;DHT22;12046;44.702;10.622;2023-07-16T16:35:25;37.00;71.80
23731;DHT22;12046;44.702;10.622;2023-07-16T16:37:51;37.00;72.00
23731;DHT22;12046;44.702;10.622;2023-07-16T16:40:17;37.00;72.30
23731;DHT22;12046;44.702;10.622;2023-07-16T16:42:45;37.10;72.60
23731;DHT22;12046;44.702;10.622;2023-07-16T16:45:11;37.10;72.80
23731;DHT22;12046;44.702;10.622;2023-07-16T16:47:38;37.10;73.00
23731;DHT22;12046;44.702;10.622;2023-07-16T16:50:05;37.00;73.10
23731;DHT22;12046;44.702;10.622;2023-07-16T16:52:31;37.00;73.20
23731;DHT22;12046;44.702;10.622;2023-07-16T16:54:57;37.00;73.40
23731;DHT22;12046;44.702;10.622;2023-07-16T16:57:25;37.00;73.70
23731;DHT22;12046;44.702;10.622;2023-07-16T16:59:52;37.00;73.70
23731;DHT22;12046;44.702;10.622;2023-07-16T17:02:19;37.00;73.60
23731;DHT22;12046;44.702;10.622;2023-07-16T17:04:45;37.00;73.60
23731;DHT22;12046;44.702;10.622;2023-07-16T17:07:11;36.90;73.50
23731;DHT22;12046;44.702;10.622;2023-07-16T17:09:37;36.90;73.80
23731;DHT22;12046;44.702;10.622;2023-07-16T17:12:03;36.90;74.30